Time;durP1;ratioP1;P1;durP2;ratioP2;P2;SDS_P1;SDS_P2;PMS_P1;PMS_P2;Temp;Humidity;BMP_temperature;BMP_pressure;BME280_temperature;BME280_humidity;BME280_pressure;Samples;Min_cycle;Max_cycle;Signal;HPM_P1;HPM_P2
2022/12/02 00:02:05;;;;;;;;;;;;;;;;;;6103398;23;19913;-93
2022/12/02 00:04:30;;;;;;;;;;;;;;;;;;6103375;23;19979;-93
2022/12/02 00:06:56;;;;;;;;;;;;;;;;;;6103083;23;20335;-94
2022/12/02 00:09:22;;;;;;;;;;;;;;;;;;6102606;23;19920;-93
2022/12/02 00:11:49;;;;;;;;;;;;;;;;;;6103295;23;20027;-94
2022/12/02 00:14:14;;;;;;;;;;;;;;;;;;6103191;23;19913;-94
2022/12/02 00:16:40;;;;;;;;;;;;;;;;;;6103096;23;19976;-93
2022/12/02 00:19:06;;;;;;;;;;;;;;;;;;6103093;23;19917;-93
2022/12/02 00:21:33;;;;;;;;;;;;;;;;;;6103195;23;19913;-93
2022/12/02 00:23:59;;;;;;;;;;;;;;;;;;6103218;23;20331;-94
2022/12/02 00:26:25;;;;;;;;;;;;;;;;;;6103108;23;19912;-94
2022/12/02 00:28:51;;;;;;;;;;;;;;;;;;6102512;23;19916;-94
2022/12/02 00:31:17;;;;;;;;;;;;;;;;;;6103164;23;20350;-93
2022/12/02 00:33:43;;;;;;;;;;;;;;;;;;6102989;23;19940;-94
2022/12/02 00:36:08;;;;;;;;;;;;;;;;;;6102784;23;19919;-94
2022/12/02 00:38:34;;;;;;;;;;;;;;;;;;6102935;23;19913;-94
2022/12/02 00:41:00;;;;;;;;;;;;;;;;;;6126799;23;19916;-94
2022/12/02 00:48:56;;;;;;;;;;;;;;;;;;6126832;23;19913;-94
2022/12/02 00:51:21;;;;;;;;;;;;;;;;;;6102240;23;20229;-94
2022/12/02 00:53:47;;;;;;;;;;;;;;;;;;6104736;23;19913;-93
2022/12/02 00:56:13;;;;;;;;;;;;;;;;;;6107656;23;19921;-93
2022/12/02 00:58:39;;;;;;;;;;;;;;;;;;6107705;23;19913;-94
2022/12/02 01:01:05;;;;;;;;;;;;;;;;;;6107100;23;19919;-93
2022/12/02 01:03:36;;;;;;;;;;;;;;;;;;6107552;23;19924;-94
2022/12/02 01:06:02;;;;;;;;;;;;;;;;;;6107679;23;19919;-94
2022/12/02 01:08:28;;;;;;;;;;;;;;;;;;6107501;23;19913;-94
2022/12/02 01:10:54;;;;;;;;;;;;;;;;;;6107181;23;19913;-92
2022/12/02 01:13:20;;;;;;;;;;;;;;;;;;6107552;23;19919;-94
2022/12/02 01:15:46;;;;;;;;;;;;;;;;;;6131907;23;19923;-94
2022/12/02 01:18:12;;;;;;;;;;;;;;;;;;6107290;23;20310;-93
2022/12/02 01:20:38;;;;;;;;;;;;;;;;;;6106658;23;19987;-93
2022/12/02 01:23:04;;;;;;;;;;;;;;;;;;6107267;23;19995;-92
2022/12/02 01:25:29;;;;;;;;;;;;;;;;;;6107323;23;20315;-94
2022/12/02 01:27:55;;;;;;;;;;;;;;;;;;6107292;23;19944;-94
2022/12/02 01:30:21;;;;;;;;;;;;;;;;;;6107002;23;19916;-93
2022/12/02 01:32:47;;;;;;;;;;;;;;;;;;6107242;23;20278;-93
2022/12/02 01:35:13;;;;;;;;;;;;;;;;;;6107106;23;19912;-94
2022/12/02 01:37:39;;;;;;;;;;;;;;;;;;6106965;23;20339;-93
2022/12/02 01:40:05;;;;;;;;;;;;;;;;;;6106605;23;20034;-94
2022/12/02 01:42:31;;;;;;;;;;;;;;;;;;6107134;23;19964;-94
2022/12/02 01:44:57;;;;;;;;;;;;;;;;;;6107090;23;19951;-94
2022/12/02 01:47:23;;;;;;;;;;;;;;;;;;6107077;23;20254;-94
2022/12/02 01:49:49;;;;;;;;;;;;;;;;;;6106521;23;19920;-93
2022/12/02 01:52:15;;;;;;;;;;;;;;;;;;6106919;23;19912;-94
2022/12/02 01:54:41;;;;;;;;;;;;;;;;;;6102061;23;19956;-93
2022/12/02 01:57:07;;;;;;;;;;;;;;;;;;6102232;23;20003;-93
2022/12/02 01:59:33;;;;;;;;;;;;;;;;;;6101714;23;19944;-93
2022/12/02 02:01:59;;;;;;;;;;;;;;;;;;6102212;23;20403;-94
2022/12/02 02:04:25;;;;;;;;;;;;;;;;;;6101821;23;19988;-93
2022/12/02 02:06:51;;;;;;;;;;;;;;;;;;6101901;23;19985;-93
2022/12/02 02:09:17;;;;;;;;;;;;;;;;;;6101591;23;19940;-94
2022/12/02 02:11:43;;;;;;;;;;;;;;;;;;6101917;23;20002;-94
2022/12/02 02:14:09;;;;;;;;;;;;;;;;;;6102135;23;19913;-94
2022/12/02 02:16:34;;;;;;;;;;;;;;;;;;6126536;23;19917;-94
2022/12/02 02:19:00;;;;;;;;;;;;;;;;;;6101359;23;19913;-93
2022/12/02 02:21:26;;;;;;;;;;;;;;;;;;6101728;23;19964;-93
2022/12/02 02:23:52;;;;;;;;;;;;;;;;;;6102077;23;19963;-94
2022/12/02 02:26:18;;;;;;;;;;;;;;;;;;6126328;23;19920;-93
2022/12/02 02:28:44;;;;;;;;;;;;;;;;;;6101910;23;19912;-93
2022/12/02 02:31:10;;;;;;;;;;;;;;;;;;6101660;23;20335;-93
2022/12/02 02:33:36;;;;;;;;;;;;;;;;;;6101622;23;19920;-93
2022/12/02 02:36:02;;;;;;;;;;;;;;;;;;6101641;23;19913;-93
2022/12/02 02:38:27;;;;;;;;;;;;;;;;;;6101803;23;19916;-92
2022/12/02 02:40:53;;;;;;;;;;;;;;;;;;6101460;23;19916;-93
2022/12/02 02:43:19;;;;;;;;;;;;;;;;;;6101673;23;19913;-94
2022/12/02 02:45:45;;;;;;;;;;;;;;;;;;6101510;23;19944;-94
2022/12/02 02:48:11;;;;;;;;;;;;;;;;;;6101750;23;20251;-93
2022/12/02 02:50:37;;;;;;;;;;;;;;;;;;6101418;23;19920;-94
2022/12/02 02:53:03;;;;;;;;;;;;;;;;;;6101820;23;20015;-93
2022/12/02 02:55:29;;;;;;;;;;;;;;;;;;6101741;23;19955;-92
2022/12/02 02:57:55;;;;;;;;;;;;;;;;;;6125357;23;19963;-93
2022/12/02 03:00:21;;;;;;;;;;;;;;;;;;6101359;23;19913;-93
2022/12/02 03:02:46;;;;;;;;;;;;;;;;;;6101837;23;19924;-93
2022/12/02 03:05:12;;;;;;;;;;;;;;;;;;6101688;23;19916;-92
2022/12/02 03:07:38;;;;;;;;;;;;;;;;;;6101702;23;20255;-94
2022/12/02 03:10:04;;;;;;;;;;;;;;;;;;6101050;23;19919;-94
2022/12/02 03:12:30;;;;;;;;;;;;;;;;;;6101523;23;19924;-93
2022/12/02 03:14:56;;;;;;;;;;;;;;;;;;6101382;23;19916;-93
2022/12/02 03:17:22;;;;;;;;;;;;;;;;;;6101391;23;20251;-92
2022/12/02 03:19:48;;;;;;;;;;;;;;;;;;6101227;23;19913;-93
2022/12/02 03:22:14;;;;;;;;;;;;;;;;;;6101324;23;19989;-93
2022/12/02 03:24:40;;;;;;;;;;;;;;;;;;6101487;23;20378;-94
2022/12/02 03:27:06;;;;;;;;;;;;;;;;;;6101553;23;20350;-93
2022/12/02 03:29:31;;;;;;;;;;;;;;;;;;6101226;23;19944;-93
2022/12/02 03:31:57;;;;;;;;;;;;;;;;;;6101516;23;19920;-94
2022/12/02 03:34:23;;;;;;;;;;;;;;;;;;6101922;23;20374;-93
2022/12/02 03:36:49;;;;;;;;;;;;;;;;;;6101379;23;19946;-92
2022/12/02 03:39:16;;;;;;;;;;;;;;;;;;6101100;23;19916;-93
2022/12/02 03:41:42;;;;;;;;;;;;;;;;;;6101543;23;19920;-94
2022/12/02 03:44:08;;;;;;;;;;;;;;;;;;6101742;23;19912;-94
2022/12/02 03:46:34;;;;;;;;;;;;;;;;;;6101601;23;19913;-93
2022/12/02 03:49:00;;;;;;;;;;;;;;;;;;6101083;23;19924;-93
2022/12/02 03:51:26;;;;;;;;;;;;;;;;;;6101350;23;19964;-93
2022/12/02 03:53:51;;;;;;;;;;;;;;;;;;6128571;23;19976;-93
2022/12/02 03:56:17;;;;;;;;;;;;;;;;;;6130680;23;20446;-94
2022/12/02 03:58:43;;;;;;;;;;;;;;;;;;6106230;23;19920;-94
2022/12/02 04:01:09;;;;;;;;;;;;;;;;;;6105777;23;19981;-93
2022/12/02 04:03:35;;;;;;;;;;;;;;;;;;6106313;23;19919;-94
2022/12/02 04:06:01;;;;;;;;;;;;;;;;;;6106064;23;19920;-93
2022/12/02 04:08:27;;;;;;;;;;;;;;;;;;6106192;23;19916;-92
2022/12/02 04:10:53;;;;;;;;;;;;;;;;;;6105881;23;19944;-92
2022/12/02 04:13:19;;;;;;;;;;;;;;;;;;6106412;23;19913;-94
2022/12/02 04:15:45;;;;;;;;;;;;;;;;;;6106300;23;19979;-93
2022/12/02 04:18:10;;;;;;;;;;;;;;;;;;6105952;23;19971;-92
2022/12/02 04:20:36;;;;;;;;;;;;;;;;;;6105559;23;19916;-93
2022/12/02 04:23:02;;;;;;;;;;;;;;;;;;6106069;23;19975;-93
2022/12/02 04:25:28;;;;;;;;;;;;;;;;;;6106044;23;19913;-93
2022/12/02 04:27:54;;;;;;;;;;;;;;;;;;6107357;23;19919;-94
2022/12/02 04:30:20;;;;;;;;;;;;;;;;;;6107492;23;19984;-92
2022/12/02 04:32:46;;;;;;;;;;;;;;;;;;6108124;23;19944;-93
2022/12/02 04:35:12;;;;;;;;;;;;;;;;;;6107681;23;19952;-93
2022/12/02 04:37:38;;;;;;;;;;;;;;;;;;6107534;23;19916;-93
2022/12/02 04:40:04;;;;;;;;;;;;;;;;;;6107339;23;19935;-93
2022/12/02 04:42:29;;;;;;;;;;;;;;;;;;6107713;23;19912;-94
2022/12/02 04:47:28;;;;;;;;;;;;;;;;;;6132185;23;19916;-93
2022/12/02 04:49:54;;;;;;;;;;;;;;;;;;6107309;23;19935;-93
2022/12/02 04:52:20;;;;;;;;;;;;;;;;;;6107607;23;19912;-93
2022/12/02 04:54:46;;;;;;;;;;;;;;;;;;6102775;23;19916;-93
2022/12/02 04:57:12;;;;;;;;;;;;;;;;;;6102659;23;20327;-93
2022/12/02 04:59:38;;;;;;;;;;;;;;;;;;6102413;23;19920;-93
2022/12/02 05:02:04;;;;;;;;;;;;;;;;;;6102118;23;19936;-93
2022/12/02 05:04:30;;;;;;;;;;;;;;;;;;6100600;23;19913;-93
2022/12/02 05:06:55;;;;;;;;;;;;;;;;;;6126246;23;19912;-93
2022/12/02 05:09:21;;;;;;;;;;;;;;;;;;6101328;23;19964;-94
2022/12/02 05:11:47;;;;;;;;;;;;;;;;;;6101783;23;19960;-92
2022/12/02 05:14:13;;;;;;;;;;;;;;;;;;6101723;23;20005;-93
2022/12/02 05:16:39;;;;;;;;;;;;;;;;;;6102358;23;19916;-92
2022/12/02 05:19:05;;;;;;;;;;;;;;;;;;6101273;23;19917;-93
2022/12/02 05:21:31;;;;;;;;;;;;;;;;;;6101732;23;20331;-93
2022/12/02 05:23:57;;;;;;;;;;;;;;;;;;6101901;23;19923;-93
2022/12/02 05:26:23;;;;;;;;;;;;;;;;;;6101756;23;19917;-92
2022/12/02 05:28:49;;;;;;;;;;;;;;;;;;6101361;23;19913;-92
2022/12/02 05:31:15;;;;;;;;;;;;;;;;;;6101734;23;19987;-93
2022/12/02 05:33:41;;;;;;;;;;;;;;;;;;6101576;23;19987;-93
2022/12/02 05:36:09;;;;;;;;;;;;;;;;;;6101319;23;19917;-92
2022/12/02 05:38:35;;;;;;;;;;;;;;;;;;6101372;23;19912;-93
2022/12/02 05:41:01;;;;;;;;;;;;;;;;;;6101045;23;19920;-93
2022/12/02 05:43:27;;;;;;;;;;;;;;;;;;6101403;23;19944;-92
2022/12/02 05:45:52;;;;;;;;;;;;;;;;;;6101538;23;20254;-93
2022/12/02 05:48:18;;;;;;;;;;;;;;;;;;6101530;23;19919;-93
2022/12/02 05:50:44;;;;;;;;;;;;;;;;;;6100793;23;19913;-92
2022/12/02 05:53:10;;;;;;;;;;;;;;;;;;6125869;23;19913;-93
2022/12/02 05:55:36;;;;;;;;;;;;;;;;;;6130500;23;20323;-91
2022/12/02 05:58:02;;;;;;;;;;;;;;;;;;6105770;23;20397;-92
2022/12/02 06:00:28;;;;;;;;;;;;;;;;;;6105935;23;19919;-93
2022/12/02 06:02:54;;;;;;;;;;;;;;;;;;6106268;23;19944;-93
2022/12/02 06:05:20;;;;;;;;;;;;;;;;;;6106275;23;19919;-92
2022/12/02 06:07:46;;;;;;;;;;;;;;;;;;6105934;23;19913;-92
2022/12/02 06:10:12;;;;;;;;;;;;;;;;;;6105866;23;19912;-93
2022/12/02 06:12:38;;;;;;;;;;;;;;;;;;6105799;23;20350;-92
2022/12/02 06:15:04;;;;;;;;;;;;;;;;;;6106019;23;19913;-92
2022/12/02 06:17:30;;;;;;;;;;;;;;;;;;6105865;23;19917;-92
2022/12/02 06:19:56;;;;;;;;;;;;;;;;;;6105676;23;20331;-93
2022/12/02 06:22:22;;;;;;;;;;;;;;;;;;6106025;23;19916;-92
2022/12/02 06:24:47;;;;;;;;;;;;;;;;;;6105990;23;19913;-93
2022/12/02 06:27:14;;;;;;;;;;;;;;;;;;6105993;23;19912;-93
2022/12/02 06:29:40;;;;;;;;;;;;;;;;;;6105758;23;19927;-92
2022/12/02 06:32:06;;;;;;;;;;;;;;;;;;6106797;23;20252;-93
2022/12/02 06:34:32;;;;;;;;;;;;;;;;;;6130431;23;20356;-93
2022/12/02 06:36:57;;;;;;;;;;;;;;;;;;6105717;23;19916;-93
2022/12/02 06:39:23;;;;;;;;;;;;;;;;;;6105272;23;20349;-93
2022/12/02 06:41:49;;;;;;;;;;;;;;;;;;6105867;23;19926;-93
2022/12/02 06:47:00;;;;;;;;;;;;;;;;;;6130408;23;19924;-92
2022/12/02 06:49:26;;;;;;;;;;;;;;;;;;6104835;23;19913;-93
2022/12/02 06:51:52;;;;;;;;;;;;;;;;;;6105507;23;20389;-92
2022/12/02 06:54:18;;;;;;;;;;;;;;;;;;6100673;23;19913;-92
2022/12/02 06:56:44;;;;;;;;;;;;;;;;;;6100761;23;19958;-92
2022/12/02 06:59:09;;;;;;;;;;;;;;;;;;6100463;23;19923;-92
2022/12/02 07:01:40;;;;;;;;;;;;;;;;;;6100938;23;19989;-93
2022/12/02 07:04:06;;;;;;;;;;;;;;;;;;6100764;23;19964;-92
2022/12/02 07:06:32;;;;;;;;;;;;;;;;;;6100757;23;19912;-93
2022/12/02 07:08:58;;;;;;;;;;;;;;;;;;6100230;23;19923;-93
2022/12/02 07:14:08;;;;;;;;;;;;;;;;;;6125467;23;20321;-93
2022/12/02 07:16:34;;;;;;;;;;;;;;;;;;6126758;23;19970;-93
2022/12/02 07:19:00;;;;;;;;;;;;;;;;;;6100279;23;19913;-92
2022/12/02 07:21:26;;;;;;;;;;;;;;;;;;6100466;23;20236;-93
2022/12/02 07:23:52;;;;;;;;;;;;;;;;;;6100763;23;19917;-94
2022/12/02 07:26:22;;;;;;;;;;;;;;;;;;6100597;23;19916;-91
2022/12/02 07:28:48;;;;;;;;;;;;;;;;;;6100653;23;20002;-92
2022/12/02 07:31:14;;;;;;;;;;;;;;;;;;6100193;23;19913;-93
2022/12/02 07:33:40;;;;;;;;;;;;;;;;;;6125190;23;20358;-93
2022/12/02 07:36:05;;;;;;;;;;;;;;;;;;6100565;23;19912;-93
2022/12/02 07:38:31;;;;;;;;;;;;;;;;;;6100615;23;19923;-93
2022/12/02 07:40:57;;;;;;;;;;;;;;;;;;6100377;23;19929;-92
2022/12/02 07:43:23;;;;;;;;;;;;;;;;;;6100666;23;19920;-92
2022/12/02 07:45:49;;;;;;;;;;;;;;;;;;6100806;23;19912;-93
2022/12/02 07:48:15;;;;;;;;;;;;;;;;;;6100630;23;19913;-92
2022/12/02 07:50:41;;;;;;;;;;;;;;;;;;6124686;23;19920;-93
2022/12/02 07:53:07;;;;;;;;;;;;;;;;;;6101111;23;19917;-94
2022/12/02 07:55:33;;;;;;;;;;;;;;;;;;6124908;23;20323;-93
2022/12/02 07:57:59;;;;;;;;;;;;;;;;;;6125154;23;20043;-92
2022/12/02 08:00:25;;;;;;;;;;;;;;;;;;6100570;23;19920;-93
2022/12/02 08:02:51;;;;;;;;;;;;;;;;;;6126927;23;20228;-93
2022/12/02 08:05:17;;;;;;;;;;;;;;;;;;6102343;23;19923;-93
2022/12/02 08:07:43;;;;;;;;;;;;;;;;;;6102263;23;19936;-93
2022/12/02 08:10:09;;;;;;;;;;;;;;;;;;6103589;23;19913;-93
2022/12/02 08:12:35;;;;;;;;;;;;;;;;;;6102270;23;19924;-91
2022/12/02 08:15:01;;;;;;;;;;;;;;;;;;6102341;23;19946;-93
2022/12/02 08:17:26;;;;;;;;;;;;;;;;;;6126577;23;19943;-93
2022/12/02 08:19:52;;;;;;;;;;;;;;;;;;6126266;23;19959;-93
2022/12/02 08:25:22;;;;;;;;;;;;;;;;;;6137945;23;19948;-94
2022/12/02 08:27:48;;;;;;;;;;;;;;;;;;6096205;23;19913;-92
2022/12/02 08:30:16;;;;;;;;;;;;;;;;;;6101135;23;19968;-92
2022/12/02 08:32:42;;;;;;;;;;;;;;;;;;6101574;23;19960;-94
2022/12/02 08:35:08;;;;;;;;;;;;;;;;;;6101478;23;19913;-91
2022/12/02 08:37:33;;;;;;;;;;;;;;;;;;6101311;23;19920;-90
2022/12/02 08:39:59;;;;;;;;;;;;;;;;;;6101333;23;19920;-93
2022/12/02 08:42:25;;;;;;;;;;;;;;;;;;6101702;23;19913;-91
2022/12/02 08:44:51;;;;;;;;;;;;;;;;;;6101796;23;19964;-94
2022/12/02 08:47:17;;;;;;;;;;;;;;;;;;6101113;23;19921;-93
2022/12/02 08:49:43;;;;;;;;;;;;;;;;;;6100992;23;19919;-92
2022/12/02 08:52:09;;;;;;;;;;;;;;;;;;6101200;23;20319;-93
2022/12/02 08:54:35;;;;;;;;;;;;;;;;;;6101307;23;19920;-94
2022/12/02 08:57:01;;;;;;;;;;;;;;;;;;6101648;23;19949;-93
2022/12/02 08:59:27;;;;;;;;;;;;;;;;;;6101572;23;19917;-93
2022/12/02 09:01:53;;;;;;;;;;;;;;;;;;6101123;23;19920;-93
2022/12/02 09:04:19;;;;;;;;;;;;;;;;;;6101412;23;19913;-92
2022/12/02 09:06:45;;;;;;;;;;;;;;;;;;6101400;23;19980;-92
2022/12/02 09:09:11;;;;;;;;;;;;;;;;;;6125041;23;19959;-91
2022/12/02 09:11:37;;;;;;;;;;;;;;;;;;6100648;23;19916;-86
2022/12/02 09:14:03;;;;;;;;;;;;;;;;;;6124803;23;19913;-89
2022/12/02 09:16:29;;;;;;;;;;;;;;;;;;6101222;23;19916;-90
2022/12/02 09:18:56;;;;;;;;;;;;;;;;;;6124447;23;19913;-89
2022/12/02 09:21:22;;;;;;;;;;;;;;;;;;6100738;23;19913;-89
2022/12/02 09:26:33;;;;;;;;;;;;;;;;;;6124948;23;20251;-88
2022/12/02 09:28:59;;;;;;;;;;;;;;;;;;6124663;23;19996;-88
2022/12/02 09:31:25;;;;;;;;;;;;;;;;;;6100409;23;19944;-88
2022/12/02 09:33:51;;;;;;;;;;;;;;;;;;6100555;23;19919;-88
2022/12/02 09:36:17;;;;;;;;;;;;;;;;;;6100203;23;19924;-88
2022/12/02 09:38:44;;;;;;;;;;;;;;;;;;6100264;23;19924;-88
2022/12/02 09:41:10;;;;;;;;;;;;;;;;;;6099611;23;19924;-90
2022/12/02 09:43:36;;;;;;;;;;;;;;;;;;6100034;23;19914;-88
2022/12/02 09:46:04;;;;;;;;;;;;;;;;;;6100296;23;19964;-88
2022/12/02 09:48:29;;;;;;;;;;;;;;;;;;6099991;23;19923;-88
2022/12/02 09:50:55;;;;;;;;;;;;;;;;;;6099698;23;19916;-88
2022/12/02 09:53:21;;;;;;;;;;;;;;;;;;6124839;23;20292;-88
2022/12/02 09:55:47;;;;;;;;;;;;;;;;;;6100260;23;19956;-88
2022/12/02 10:01:09;;;;;;;;;;;;;;;;;;6123202;23;20299;-89
2022/12/02 10:03:35;;;;;;;;;;;;;;;;;;6100061;23;19913;-88
2022/12/02 10:06:01;;;;;;;;;;;;;;;;;;6100200;23;19913;-88
2022/12/02 10:08:27;;;;;;;;;;;;;;;;;;6099866;23;19921;-88
2022/12/02 10:10:53;;;;;;;;;;;;;;;;;;6099492;23;19920;-88
2022/12/02 10:13:19;;;;;;;;;;;;;;;;;;6124423;23;19944;-88
2022/12/02 10:15:45;;;;;;;;;;;;;;;;;;6100360;23;19920;-88
2022/12/02 10:18:18;;;;;;;;;;;;;;;;;;6099807;23;19917;-88
2022/12/02 10:20:44;;;;;;;;;;;;;;;;;;6099720;23;19913;-88
2022/12/02 10:23:10;;;;;;;;;;;;;;;;;;6099390;23;19920;-88
2022/12/02 10:25:46;;;;;;;;;;;;;;;;;;6100129;23;19913;-88
2022/12/02 10:28:12;;;;;;;;;;;;;;;;;;6099233;23;19955;-88
2022/12/02 10:30:40;;;;;;;;;;;;;;;;;;6099035;23;20273;-88
2022/12/02 10:33:07;;;;;;;;;;;;;;;;;;6099792;23;20900;-87
2022/12/02 10:35:33;;;;;;;;;;;;;;;;;;6099931;23;19983;-87
2022/12/02 10:37:59;;;;;;;;;;;;;;;;;;6099598;23;20003;-88
2022/12/02 10:40:25;;;;;;;;;;;;;;;;;;6099232;23;19923;-87
2022/12/02 10:42:51;;;;;;;;;;;;;;;;;;6099836;23;20251;-88
2022/12/02 10:45:17;;;;;;;;;;;;;;;;;;6099774;23;20606;-87
2022/12/02 10:47:43;;;;;;;;;;;;;;;;;;6099832;23;19917;-87
2022/12/02 10:50:09;;;;;;;;;;;;;;;;;;6099151;23;19920;-88
2022/12/02 10:52:35;;;;;;;;;;;;;;;;;;6099265;23;19912;-87
2022/12/02 10:55:01;;;;;;;;;;;;;;;;;;6099258;23;19912;-88
2022/12/02 10:57:27;;;;;;;;;;;;;;;;;;6099964;23;19921;-88
2022/12/02 10:59:53;;;;;;;;;;;;;;;;;;6098651;23;19952;-88
2022/12/02 11:02:19;;;;;;;;;;;;;;;;;;6099529;23;19919;-89
2022/12/02 11:04:51;;;;;;;;;;;;;;;;;;6099732;23;19916;-89
2022/12/02 11:07:16;;;;;;;;;;;;;;;;;;6099900;23;19913;-88
2022/12/02 11:09:42;;;;;;;;;;;;;;;;;;6098967;23;20328;-89
2022/12/02 11:12:08;;;;;;;;;;;;;;;;;;6099334;23;19913;-87
2022/12/02 11:14:34;;;;;;;;;;;;;;;;;;6124553;23;20259;-90
2022/12/02 11:17:00;;;;;;;;;;;;;;;;;;6099890;23;20353;-90
2022/12/02 11:19:36;;;;;;;;;;;;;;;;;;6098105;23;19913;-87
2022/12/02 11:22:02;;;;;;;;;;;;;;;;;;6123962;23;20394;-91
2022/12/02 11:24:28;;;;;;;;;;;;;;;;;;6100110;23;19913;-90
2022/12/02 11:26:54;;;;;;;;;;;;;;;;;;6099961;23;19919;-90
2022/12/02 11:29:20;;;;;;;;;;;;;;;;;;6099390;23;19924;-90
2022/12/02 11:31:46;;;;;;;;;;;;;;;;;;6100090;23;19920;-90
2022/12/02 11:34:11;;;;;;;;;;;;;;;;;;6124239;23;20353;-90
2022/12/02 11:36:37;;;;;;;;;;;;;;;;;;6101198;23;19927;-90
2022/12/02 11:39:03;;;;;;;;;;;;;;;;;;6101455;23;20291;-89
2022/12/02 11:41:29;;;;;;;;;;;;;;;;;;6102071;23;19913;-89
2022/12/02 11:43:55;;;;;;;;;;;;;;;;;;6101910;23;19948;-90
2022/12/02 11:46:21;;;;;;;;;;;;;;;;;;6101922;23;19917;-90
2022/12/02 11:48:47;;;;;;;;;;;;;;;;;;6101683;23;19916;-90
2022/12/02 11:51:13;;;;;;;;;;;;;;;;;;6101865;23;19917;-89
2022/12/02 11:53:39;;;;;;;;;;;;;;;;;;6102083;23;19987;-90
2022/12/02 11:56:05;;;;;;;;;;;;;;;;;;6106435;23;19987;-90
2022/12/02 11:58:40;;;;;;;;;;;;;;;;;;6106506;23;19920;-90
2022/12/02 12:01:06;;;;;;;;;;;;;;;;;;6106013;23;19964;-89
2022/12/02 12:03:41;;;;;;;;;;;;;;;;;;6130487;23;19913;-89
2022/12/02 12:06:07;;;;;;;;;;;;;;;;;;6130355;23;20231;-89
2022/12/02 12:08:33;;;;;;;;;;;;;;;;;;6106437;23;19912;-90
2022/12/02 12:10:59;;;;;;;;;;;;;;;;;;6105764;23;19912;-89
2022/12/02 12:13:25;;;;;;;;;;;;;;;;;;6130455;23;19920;-88
2022/12/02 12:15:51;;;;;;;;;;;;;;;;;;6106281;23;19975;-88
2022/12/02 12:18:17;;;;;;;;;;;;;;;;;;6106315;23;19920;-91
2022/12/02 12:20:43;;;;;;;;;;;;;;;;;;6105647;23;19912;-90
2022/12/02 12:23:09;;;;;;;;;;;;;;;;;;6105898;23;19913;-89
2022/12/02 12:25:35;;;;;;;;;;;;;;;;;;6106372;23;19923;-90
2022/12/02 12:28:01;;;;;;;;;;;;;;;;;;6106107;23;19916;-89
2022/12/02 12:30:27;;;;;;;;;;;;;;;;;;6109521;23;19922;-92
2022/12/02 12:32:53;;;;;;;;;;;;;;;;;;6107245;23;19919;-93
2022/12/02 12:35:19;;;;;;;;;;;;;;;;;;6107068;23;19991;-93
2022/12/02 12:37:44;;;;;;;;;;;;;;;;;;6106961;23;19995;-92
2022/12/02 12:40:10;;;;;;;;;;;;;;;;;;6106344;23;19917;-94
2022/12/02 12:42:38;;;;;;;;;;;;;;;;;;6131458;23;19920;-93
2022/12/02 12:45:04;;;;;;;;;;;;;;;;;;6107017;23;19916;-92
2022/12/02 12:47:30;;;;;;;;;;;;;;;;;;6106397;23;19913;-94
2022/12/02 12:49:56;;;;;;;;;;;;;;;;;;6106865;23;20327;-92
2022/12/02 12:52:22;;;;;;;;;;;;;;;;;;6131349;23;19913;-94
2022/12/02 12:54:49;;;;;;;;;;;;;;;;;;6102023;23;19912;-95
2022/12/02 12:57:15;;;;;;;;;;;;;;;;;;6101962;23;19924;-93
2022/12/02 12:59:41;;;;;;;;;;;;;;;;;;6101692;23;19917;-94
2022/12/02 13:02:07;;;;;;;;;;;;;;;;;;6101962;23;20354;-93
2022/12/02 13:04:33;;;;;;;;;;;;;;;;;;6102221;23;19916;-94
2022/12/02 13:06:58;;;;;;;;;;;;;;;;;;6101863;23;19923;-94
2022/12/02 13:09:24;;;;;;;;;;;;;;;;;;6101584;23;19912;-94
2022/12/02 13:11:50;;;;;;;;;;;;;;;;;;6101966;23;19984;-96
2022/12/02 13:14:16;;;;;;;;;;;;;;;;;;6102005;23;19956;-95
2022/12/02 13:16:42;;;;;;;;;;;;;;;;;;6101912;23;20358;-95
2022/12/02 13:19:08;;;;;;;;;;;;;;;;;;6101363;23;19917;-93
2022/12/02 13:21:34;;;;;;;;;;;;;;;;;;6101758;23;19913;-95
2022/12/02 13:24:02;;;;;;;;;;;;;;;;;;6101787;23;20220;-95
2022/12/02 13:26:28;;;;;;;;;;;;;;;;;;6102034;23;19917;-95
2022/12/02 13:28:54;;;;;;;;;;;;;;;;;;6101435;23;20255;-94
2022/12/02 13:31:20;;;;;;;;;;;;;;;;;;6101680;23;20280;-93
2022/12/02 13:33:46;;;;;;;;;;;;;;;;;;6101863;23;19917;-94
2022/12/02 13:36:11;;;;;;;;;;;;;;;;;;6125952;23;20327;-91
2022/12/02 13:38:37;;;;;;;;;;;;;;;;;;6101537;23;19972;-94
2022/12/02 13:41:04;;;;;;;;;;;;;;;;;;6101153;23;20243;-93
2022/12/02 13:43:29;;;;;;;;;;;;;;;;;;6101806;23;20576;-93
2022/12/02 13:45:55;;;;;;;;;;;;;;;;;;6101637;23;20007;-93
2022/12/02 13:48:21;;;;;;;;;;;;;;;;;;6101606;23;19987;-93
2022/12/02 13:50:47;;;;;;;;;;;;;;;;;;6125419;23;19917;-94
2022/12/02 13:53:13;;;;;;;;;;;;;;;;;;6101356;23;19917;-94
2022/12/02 13:55:39;;;;;;;;;;;;;;;;;;6101986;23;19960;-93
2022/12/02 13:58:05;;;;;;;;;;;;;;;;;;6101361;23;19917;-94
2022/12/02 14:00:31;;;;;;;;;;;;;;;;;;6100924;23;19916;-94
2022/12/02 14:02:57;;;;;;;;;;;;;;;;;;6101447;23;20600;-93
2022/12/02 14:05:23;;;;;;;;;;;;;;;;;;6101533;23;19984;-94
2022/12/02 14:07:49;;;;;;;;;;;;;;;;;;6101413;23;19919;-94
2022/12/02 14:10:14;;;;;;;;;;;;;;;;;;6100714;23;19917;-92
2022/12/02 14:12:40;;;;;;;;;;;;;;;;;;6101301;23;19912;-93
2022/12/02 14:15:06;;;;;;;;;;;;;;;;;;6101357;23;19913;-94
2022/12/02 14:17:33;;;;;;;;;;;;;;;;;;6101417;23;19917;-94
2022/12/02 14:19:59;;;;;;;;;;;;;;;;;;6101653;23;19982;-93
2022/12/02 14:22:25;;;;;;;;;;;;;;;;;;6100968;23;19913;-92
2022/12/02 14:24:50;;;;;;;;;;;;;;;;;;6101378;23;20224;-94
2022/12/02 14:27:16;;;;;;;;;;;;;;;;;;6101270;23;19919;-93
2022/12/02 14:29:42;;;;;;;;;;;;;;;;;;6101008;23;19920;-93
2022/12/02 14:32:08;;;;;;;;;;;;;;;;;;6101241;23;19913;-94
2022/12/02 14:34:34;;;;;;;;;;;;;;;;;;6101049;23;19912;-92
2022/12/02 14:37:00;;;;;;;;;;;;;;;;;;6100930;23;20327;-95
2022/12/02 14:39:26;;;;;;;;;;;;;;;;;;6101162;23;19920;-91
2022/12/02 14:41:52;;;;;;;;;;;;;;;;;;6100003;23;19913;-90
2022/12/02 14:44:18;;;;;;;;;;;;;;;;;;6100458;23;19987;-91
2022/12/02 14:49:15;;;;;;;;;;;;;;;;;;6124360;23;19920;-92
2022/12/02 14:51:41;;;;;;;;;;;;;;;;;;6100089;23;19913;-90
2022/12/02 14:54:07;;;;;;;;;;;;;;;;;;6100134;23;19984;-91
2022/12/02 14:56:33;;;;;;;;;;;;;;;;;;6100422;23;19977;-91
2022/12/02 14:58:59;;;;;;;;;;;;;;;;;;6100170;23;19913;-91
2022/12/02 15:01:24;;;;;;;;;;;;;;;;;;6100259;23;19913;-91
2022/12/02 15:03:50;;;;;;;;;;;;;;;;;;6100614;23;19912;-90
2022/12/02 15:06:16;;;;;;;;;;;;;;;;;;6100357;23;20512;-90
2022/12/02 15:08:42;;;;;;;;;;;;;;;;;;6100172;23;19935;-90
2022/12/02 15:11:08;;;;;;;;;;;;;;;;;;6099643;23;19913;-93
2022/12/02 15:13:34;;;;;;;;;;;;;;;;;;6125225;23;19920;-93
2022/12/02 15:16:00;;;;;;;;;;;;;;;;;;6100514;23;19920;-94
2022/12/02 15:18:26;;;;;;;;;;;;;;;;;;6099906;23;19920;-94
2022/12/02 15:20:52;;;;;;;;;;;;;;;;;;6100145;23;19920;-92
2022/12/02 15:23:18;;;;;;;;;;;;;;;;;;6125146;23;19913;-94
2022/12/02 15:25:44;;;;;;;;;;;;;;;;;;6100520;23;19944;-93
2022/12/02 15:28:10;;;;;;;;;;;;;;;;;;6101018;23;19942;-93
2022/12/02 15:30:43;;;;;;;;;;;;;;;;;;6101346;23;19919;-95
2022/12/02 15:33:09;;;;;;;;;;;;;;;;;;6101812;23;19923;-92
2022/12/02 15:35:35;;;;;;;;;;;;;;;;;;6101775;23;19948;-93
2022/12/02 15:38:01;;;;;;;;;;;;;;;;;;6100954;23;19917;-94
2022/12/02 15:40:27;;;;;;;;;;;;;;;;;;6100419;23;19924;-94
2022/12/02 15:42:53;;;;;;;;;;;;;;;;;;6101503;23;19919;-94
2022/12/02 15:45:19;;;;;;;;;;;;;;;;;;6101496;23;19919;-93
2022/12/02 15:47:45;;;;;;;;;;;;;;;;;;6126035;23;20338;-93
2022/12/02 15:50:11;;;;;;;;;;;;;;;;;;6101083;23;19936;-90
2022/12/02 15:52:37;;;;;;;;;;;;;;;;;;6124180;23;19913;-88
2022/12/02 15:55:03;;;;;;;;;;;;;;;;;;6099635;23;19920;-88
2022/12/02 15:57:29;;;;;;;;;;;;;;;;;;6099579;23;19927;-89
2022/12/02 15:59:55;;;;;;;;;;;;;;;;;;6099389;23;19912;-88
2022/12/02 16:02:20;;;;;;;;;;;;;;;;;;6124397;23;19980;-88
2022/12/02 16:04:46;;;;;;;;;;;;;;;;;;6126115;23;19968;-94
2022/12/02 16:07:14;;;;;;;;;;;;;;;;;;6101890;23;20365;-94
2022/12/02 16:09:40;;;;;;;;;;;;;;;;;;6101441;23;20299;-93
2022/12/02 16:12:05;;;;;;;;;;;;;;;;;;6101717;23;19960;-94
2022/12/02 16:14:31;;;;;;;;;;;;;;;;;;6102238;23;19961;-95
2022/12/02 16:16:57;;;;;;;;;;;;;;;;;;6102002;23;20570;-94
2022/12/02 16:19:23;;;;;;;;;;;;;;;;;;6103467;23;19917;-96
2022/12/02 16:21:49;;;;;;;;;;;;;;;;;;6102576;23;19912;-94
2022/12/02 16:24:25;;;;;;;;;;;;;;;;;;6103410;23;19968;-96
2022/12/02 16:26:51;;;;;;;;;;;;;;;;;;6101656;23;19912;-95
2022/12/02 16:29:17;;;;;;;;;;;;;;;;;;6101284;23;19916;-95
2022/12/02 16:31:43;;;;;;;;;;;;;;;;;;6102236;23;20258;-93
2022/12/02 16:34:10;;;;;;;;;;;;;;;;;;6101867;23;19920;-94
2022/12/02 16:36:36;;;;;;;;;;;;;;;;;;6101925;23;19987;-94
2022/12/02 16:39:02;;;;;;;;;;;;;;;;;;6101276;23;19999;-94
2022/12/02 16:41:27;;;;;;;;;;;;;;;;;;6101839;23;19921;-95
2022/12/02 16:43:53;;;;;;;;;;;;;;;;;;6101834;23;19917;-95
2022/12/02 16:46:19;;;;;;;;;;;;;;;;;;6126535;23;19917;-95
2022/12/02 16:48:45;;;;;;;;;;;;;;;;;;6101938;23;19916;-89
2022/12/02 16:51:11;;;;;;;;;;;;;;;;;;6105943;23;20290;-95
2022/12/02 16:53:37;;;;;;;;;;;;;;;;;;6105539;23;19955;-95
2022/12/02 16:56:03;;;;;;;;;;;;;;;;;;6104455;23;20350;-94
2022/12/02 16:58:29;;;;;;;;;;;;;;;;;;6105301;23;19928;-95
2022/12/02 17:00:55;;;;;;;;;;;;;;;;;;6105770;23;19920;-96
2022/12/02 17:03:21;;;;;;;;;;;;;;;;;;6106475;23;19920;-96